DRI Storm Peak Lab. Weather observations

Data are for 5 minute period ending at time listed.
 Day   Time    Ave.   Ave.  Ave.  Vector  Max.   Total    Baro.    Solar      Aerosol      Ave.  Ultrafine   Snow  
  of    of     Air    Rel.  Wind   Wind   Wind  Precip.   Pres.  Radiation   Aerosol      Ozone   Aerosol    Depth 
Year   Day     Temp.  Hum.  Speed  Dir.   Gust                               Ave.   Max.            Ave.           
2015   (MST)    F      %     mph   deg.    mph    in.      mb.     w/m2         #/cm3      ppbv    #/cm3      in.  
-------------------------------------------------------------------------------------------------------------------
 148   13:35   38.3    72    9.8   172    14.8   999.00    692.3      0.0    -1434       0   999.0        0     0.0
 148   13:40   37.3    69    7.0   172    10.4   999.00    692.3      0.0    -1434       0   999.0        0     0.0
 148   13:45   37.1    72    3.4   244     6.6   999.00    692.1      0.0    -1433       0   999.0        0     0.0
 148   13:50   37.7    74    8.7   282    16.3   999.00    692.1      0.0    -1433       0   999.0        0     0.0
 148   13:55   36.3    76    8.6   272    21.7   999.00    692.2      0.0    -1433       0   999.0        0     0.0
 148   14:00   35.8    79    5.7   252     9.6   999.00    692.3      0.0    -1433       0   999.0        0     0.0
 148   14:05   35.2    83   11.6   230    21.9   999.00    692.4      0.0    -1433       0   999.0        0     0.0
 148   14:10   34.2    88    3.9   246     7.0   999.00    692.3      0.0    -1433       0   999.0        0     0.0
 148   14:15   34.8    85    7.4   225    21.0   999.00    692.3      0.0    -1433       0   999.0        0     0.0
 148   14:20   34.3    88   15.4   157    21.5   999.00    692.2      0.0    -1433       0   999.0        0     0.0
 148   14:25   33.4    91   12.4   150    21.1   999.00    692.3      0.0    -1433       0   999.0        0     0.0
 148   14:30   33.1    93   12.9   135    23.8   999.00    692.2      0.0    -1433       0   999.0        0     0.0
 148   14:35   32.9    97    8.7   140    24.9   999.00    692.1      0.0    -1433       0   999.0        0     0.0
 148   14:40   32.5    99    1.8   138     1.8   999.00    692.2      0.0    -1433       0   999.0        0     0.0
 148   14:45   32.3   100    1.8   148     1.8   999.00    692.4      0.0    -1433       0   999.0        0     0.0
 148   14:50   32.2   100    1.8   157     1.8   999.00    692.4      0.0    -1433       0   999.0        0     0.0
 148   14:55   32.5   100    1.8   145     1.8   999.00    692.4      0.0    -1433       0   999.0        0     0.0
 148   15:00   33.2    98    3.3   167    13.3   999.00    692.4      0.0    -1433       0   999.0        0     0.0
 148   15:05   33.6    95   12.3   172    14.4   999.00    692.4      0.0    -1433       0   999.0        0     0.0
 148   15:10   33.4    95   10.5   172    13.0   999.00    692.5      0.0    -1433       0   999.0        0     0.0
 148   15:15   33.0    96    9.2   172    11.8   999.00    692.6      0.0    -1433       0   999.0        0     0.0
 148   15:20   33.4    92   11.4   184    16.1   999.00    692.6      0.0    -1433       0   999.0        0     0.0
 148   15:25   34.0    89   13.1   189    18.4   999.00    692.7      0.0    -1433       0   999.0        0     0.0
 148   15:30   33.4    92   13.5   216    21.7   999.00    692.9      0.0    -1434       0   999.0        0     0.0
 148   15:35   32.2    98   13.6   211    21.1   999.00    692.9      0.0    -1434       0   999.0        0     0.0
 148   15:40   31.7   100   13.2   217    20.0   999.00    693.1      0.0    -1434       0   999.0        0     0.0
 148   15:45   31.3   100   16.4   234    22.8   999.00    693.2      0.0    -1435       0   999.0        0     0.0
 148   15:50   30.9   100   17.3   246    29.5   999.00    693.2      0.0    -1435       0   999.0        0     0.0
 148   15:55   31.3    95   16.3   229    27.3   999.00    693.0      0.0    -1435       0   999.0        0     0.0
 148   16:00   31.9    90   11.0   181    15.8   999.00    692.8      0.0    -1435       0   999.0        0     0.0
 148   16:05   31.4    92   11.5   173    15.6   999.00    692.6      0.0    -1435       0   999.0        0     0.0
 148   16:10   31.0    96   12.8   156    15.0   999.00    692.6      0.0    -1435       0   999.0        0     0.0
 148   16:15   30.5    99   13.3   163    15.9   999.00    692.6      0.0    -1435       0   999.0        0     0.0
 148   16:20   30.5   100   14.4   168    18.5   999.00    692.7      0.0    -1435       0   999.0        0     0.0
 148   16:25   30.6    99   14.3   183    18.9   999.00    692.8      0.0    -1436       0   999.0        0     0.0
 148   16:30   30.5   100   11.5   200    19.5   999.00    692.9      0.0    -1436       0   999.0        0     0.0
 148   16:35   30.5   100   12.4   180    21.5   999.00    692.5      0.0    -1435       0   999.0        0     0.0
 148   16:40   30.4   100   12.9   180    18.7   999.00    692.5      0.0    -1435       0   999.0        0     0.0
 148   16:45   30.4   100   10.9   174    15.9   999.00    692.3      0.0    -1434       0   999.0        0     0.0
 148   16:50   30.5   100   11.7   177    17.8   999.00    692.4      0.0    -1435       0   999.0        0     0.0
 148   16:55   30.3   100   12.5   195    18.0   999.00    692.4      0.0    -1435       0   999.0        0     0.0
 148   17:00   30.1   100    9.3   197    12.8   999.00    692.5      0.0    -1435       0   999.0        0     0.0
 148   17:05   30.1   100    8.3   198    13.9   999.00    692.5      0.0    -1435       0   999.0        0     0.0
 148   17:10   30.0   100    7.9   193    11.8   999.00    692.5      0.0    -1435       0   999.0        0     0.0
 148   17:15   29.8   100    9.0   206    13.0   999.00    692.5      0.0    -1435       0   999.0        0     0.0
 148   17:20   29.9   100    7.5   210    11.8   999.00    692.6      0.0    -1435       0   999.0        0     0.0
 148   17:25   29.8   100    6.2   205    10.9   999.00    692.7      0.0    -1435       0   999.0        0     0.0
 148   17:30   29.8   100    6.9   230    11.7   999.00    692.7      0.0    -1435       0   999.0        0     0.0
 148   17:35   30.1   100   10.2   254    13.9   999.00    692.7      0.0    -1435       0   999.0        0     0.0
 148   17:40   30.3   100    8.0   272    15.4   999.00    692.6      0.0    -1435       0   999.0        0     0.0
 148   17:45   30.6   100   10.4   274    17.4   999.00    692.7      0.0    -1436       0   999.0        0     0.0
 148   17:50   30.6   100   14.2   275    18.9   999.00    692.6      0.0    -1436       0   999.0        0     0.0
 148   17:55   30.4   100   14.5   281    18.9   999.00    692.8      0.0    -1437       0   999.0        0     0.0
 148   18:00   30.2   100   10.7   303    15.6   999.00    692.8      0.0    -1437       0   999.0        0     0.0
 148   18:05   30.1   100   11.0   307    14.3   999.00    692.8      0.0    -1438       0   999.0        0     0.0
 148   18:10   30.2   100   10.6   287    16.7   999.00    692.9      0.0    -1438       0   999.0        0     0.0
 148   18:15   30.6   100   12.6   257    16.3   999.00    693.0      0.0    -1439       0   999.0        0     0.0
 148   18:20   30.7   100   10.7   258    16.9   999.00    693.0      0.0    -1439       0   999.0        0     0.0
 148   18:25   30.9   100   11.8   259    17.1   999.00    693.0      0.0    -1439       0   999.0        0     0.0
 148   18:30   30.9   100   10.5   268    13.7   999.00    693.1      0.0    -1440       0   999.0        0     0.0
 148   18:35   30.9   100   10.0   268    13.7   999.00    693.1      0.0    -1440       0   999.0        0     0.0
 148   18:40   31.0   100   10.0   266    14.1   999.00    693.1      0.0    -1440       0   999.0        0     0.0
 148   18:45   31.1   100   10.5   261    12.4   999.00    693.2      0.0    -1440       0   999.0        0     0.0
 148   18:50   31.0   100   10.4   262    13.3   999.00    693.1      0.0    -1440       0   999.0        0     0.0
 148   18:55   31.0   100    9.5   271    14.6   999.00    693.2      0.0    -1440       0   999.0        0     0.0
 148   19:00   31.0   100   11.2   287    14.4   999.00    693.0      0.0    -1440       0   999.0        0     0.0
 148   19:05   31.0   100    9.8   291    14.1   999.00    693.0      0.0    -1440       0   999.0        0     0.0
 148   19:10   31.0   100   11.6   288    16.5   999.00    693.0      0.0    -1441       0   999.0        0     0.0
 148   19:15   30.9   100   13.7   292    18.7   999.00    693.0      0.0    -1441       0   999.0        0     0.0
 148   19:20   30.9   100   13.7   290    17.8   999.00    693.1      0.0    -1441       0   999.0        0     0.0
 148   19:25   30.9   100   14.7   264    19.5   999.00    693.2      0.0    -1442       0   999.0        0     0.0
 148   19:30   30.8   100   14.7   280    21.7   999.00    693.1      0.0    -1442       0   999.0        0     0.0
 148   19:35   30.4   100   13.9   277    18.2   999.00    693.2      0.0    -1442       0   999.0        0     0.0
 148   19:40   30.1   100   12.2   255    17.1   999.00    693.2      0.0    -1442       0   999.0        0     0.0
 148   19:45   29.9   100   12.4   256    17.1   999.00    693.2      0.0    -1442       0   999.0        0     0.0
 148   19:50   29.8   100   15.6   245    18.9   999.00    693.2      0.0    -1443       0   999.0        0     0.0
 148   19:55   29.9   100   11.8   244    15.9   999.00    693.2      0.0    -1443       0   999.0        0     0.0
 148   20:00   29.8   100   13.2   233    16.3   999.00    693.1      0.0    -1443       0   999.0        0     0.0
 148   20:05   29.5   100   12.2   237    15.0   999.00    693.2      0.0    -1443       0   999.0        0     0.0
 148   20:10   28.9   100   15.1   248    20.4   999.00    693.1      0.0    -1443       0   999.0        0     0.0
 148   20:15   28.8   100   15.9   252    20.2   999.00    692.9      0.0    -1442       0   999.0        0     0.0
 148   20:20   28.8   100   14.7   250    18.0   999.00    693.0      0.0    -1443       0   999.0        0     0.0
 148   20:25   28.8   100   15.7   245    20.2   999.00    693.0      0.0    -1443       0   999.0        0     0.0
 148   20:30   28.8   100   12.6   249    17.6   999.00    693.0      0.0    -1443       0   999.0        0     0.0
 148   20:35   28.8   100   15.0   255    18.5   999.00    693.0      0.0    -1443       0   999.0        0     0.0
 148   20:40   28.8   100   13.0   266    15.2   999.00    693.1      0.0    -1444       0   999.0        0     0.0
 148   20:45   28.9   100   11.9   268    14.6   999.00    693.2      0.0    -1444       0   999.0        0     0.0
 148   20:50   28.8   100    8.8   275    11.8   999.00    693.3      0.0    -1444       0   999.0        0     0.0
 148   20:55   28.8   100    9.1   272    11.7   999.00    693.4      0.0    -1445       0   999.0        0     0.0
 148   21:00   28.8   100    8.7   278    11.3   999.00    693.4      0.0    -1445       0   999.0        0     0.0
 148   21:05   28.8   100   10.1   268    13.2   999.00    693.4      0.0    -1445       0   999.0        0     0.0
 148   21:10   29.0   100   13.2   260    16.5   999.00    693.4      0.0    -1446       0   999.0        0     0.0
 148   21:15   29.0   100   13.8   257    17.2   999.00    693.5      0.0    -1447       0   999.0        0     0.0
 148   21:20   29.1   100   14.1   257    18.2   999.00    693.5      0.0    -1447       0   999.0        0     0.0
 148   21:25   28.9   100   12.9   272    15.0   999.00    693.4      0.0    -1447       0   999.0        0     0.0
 148   21:30   28.9   100   13.1   278    16.5   999.00    693.4      0.0    -1447       0   999.0        0     0.0
 148   21:35   28.9   100   10.9   275    13.5   999.00    693.5      0.0    -1448       0   999.0        0     0.0
 148   21:40   28.9   100   10.8   281    13.9   999.00    693.5      0.0    -1448       0   999.0        0     0.0
 148   21:45   28.8   100   10.7   265    15.9   999.00    693.6      0.0    -1448       0   999.0        0     0.0
 148   21:50   28.9   100    8.6   273    11.5   999.00    693.7      0.0    -1449       0   999.0        0     0.0
 148   21:55   29.0   100    8.2   288    11.7   999.00    693.8      0.0    -1449       0   999.0        0     0.0
 148   22:00   29.0   100    7.4   289    11.1   999.00    694.0      0.0    -1449       0   999.0        0     0.0
 148   22:05   29.1   100    5.7   307     7.9   999.00    694.0      0.0    -1450       0   999.0        0     0.0
 148   22:10   29.1   100    5.3   312     7.0   999.00    694.0      0.0    -1450       0   999.0        0     0.0
 148   22:15   29.1   100    5.8   316     7.9   999.00    694.0      0.0    -1450       0   999.0        0     0.0
 148   22:20   29.0   100    6.2   310     8.5   999.00    694.0      0.0    -1449       0   999.0        0     0.0
 148   22:25   29.1   100    5.7   307     7.6   999.00    694.0      0.0    -1449       0   999.0        0     0.0
 148   22:30   29.1   100    6.8   310     8.1   999.00    694.0      0.0    -1449       0   999.0        0     0.0
 148   22:35   29.1   100    6.3   304     9.1   999.00    694.0      0.0    -1449       0   999.0        0     0.0
 148   22:40   29.1   100    6.4   308     8.3   999.00    694.0      0.0    -1449       0   999.0        0     0.0
 148   22:45   29.1   100    6.1   306     8.9   999.00    694.0      0.0    -1449       0   999.0        0     0.0
 148   22:50   29.1   100    6.5   300     8.9   999.00    694.0      0.0    -1449       0   999.0        0     0.0
 148   22:55   29.1   100    5.9   311     7.4   999.00    693.9      0.0    -1449       0   999.0        0     0.0
 148   23:00   29.1   100    5.8   297     7.0   999.00    693.8      0.0    -1449       0   999.0        0     0.0
 148   23:05   29.0   100    7.2   300     9.4   999.00    693.8      0.0    -1448       0   999.0        0     0.0
 148   23:10   29.0   100    7.5   306     9.8   999.00    693.7      0.0    -1448       0   999.0        0     0.0
 148   23:15   29.0   100    5.6   298     7.8   999.00    693.8      0.0    -1449       0   999.0        0     0.0
 148   23:20   28.9   100    6.0   288     8.9   999.00    693.8      0.0    -1448       0   999.0        0     0.0
 148   23:25   28.9   100    5.1   273     7.6   999.00    693.7      0.0    -1448       0   999.0        0     0.0
 148   23:30   28.8   100    5.8   268     7.9   999.00    693.7      0.0    -1448       0   999.0        0     0.0
 148   23:35   28.7   100    6.3   279     8.9   999.00    693.7      0.0    -1448       0   999.0        0     0.0
 148   23:40   28.7   100    5.9   285     7.6   999.00    693.7      0.0    -1448       0   999.0        0     0.0
 148   23:45   28.8   100    6.5   280     9.6   999.00    693.6      0.0    -1448       0   999.0        0     0.0
 148   23:50   28.8   100    5.7   273     7.8   999.00    693.5      0.0    -1448       0   999.0        0     0.0
 148   23:55   28.8   100    5.6   275     7.9   999.00    693.4      0.0    -1448       0   999.0        0     0.0
 149    0:00   28.8   100    6.0   262     8.1   999.00    693.3      0.0    -1448       0   999.0        0     0.0
 149    0:05   28.7   100    5.6   265     7.8   999.00    693.4      0.0    -1448       0   999.0        0     0.0
 149    0:10   28.8   100    5.5   255     7.2   999.00    693.4      0.0    -1448       0   999.0        0     0.0
 149    0:15   28.7   100    6.6   255     9.2   999.00    693.4      0.0    -1448       0   999.0        0     0.0
 149    0:20   28.7   100    5.3   252     7.9   999.00    693.4      0.0    -1448       0   999.0        0     0.0
 149    0:25   28.7   100    6.8   256     9.1   999.00    693.4      0.0    -1448       0   999.0        0     0.0
 149    0:30   28.7   100    5.0   266     7.8   999.00    693.4      0.0    -1448       0   999.0        0     0.0
 149    0:35   28.7   100    7.0   260     9.6   999.00    693.4      0.0    -1448       0   999.0        0     0.0
 149    0:40   28.7   100    7.3   264    11.8   999.00    693.4      0.0    -1448       0   999.0        0     0.0
 149    0:45   28.7   100    7.0   262    11.1   999.00    693.4      0.0    -1448       0   999.0        0     0.0
 149    0:50   28.8   100    7.6   261    11.5   999.00    693.4      0.0    -1448       0   999.0        0     0.0
 149    0:55   28.8   100    8.1   261    10.7   999.00    693.4      0.0    -1448       0   999.0        0     0.0
 149    1:00   28.8   100    5.7   262     7.8   999.00    693.4      0.0    -1448       0   999.0        0     0.0
 149    1:05   28.8   100    5.9   260     8.5   999.00    693.4      0.0    -1448       0   999.0        0     0.0
 149    1:10   28.8   100    6.2   253     8.1   999.00    693.4      0.0    -1448       0   999.0        0     0.0
 149    1:15   28.8   100    6.8   250    10.0   999.00    693.4      0.0    -1448       0   999.0        0     0.0
 149    1:20   28.8   100    6.1   252     9.1   999.00    693.4      0.0    -1448       0   999.0        0     0.0
 149    1:25   28.8   100    7.4   246    10.6   999.00    693.4      0.0    -1448       0   999.0        0     0.0
 149    1:30   28.8   100    8.5   242    11.5   999.00    693.4      0.0    -1448       0   999.0        0     0.0
 149    1:35   28.8   100   10.1   237    12.2   999.00    693.4      0.0    -1448       0   999.0        0     0.0
 149    1:40   28.7   100    9.7   238    11.7   999.00    693.4      0.0    -1448       0   999.0        0     0.0
 149    1:45   28.7   100    9.9   239    12.2   999.00    693.4      0.0    -1448       0   999.0        0     0.0
 149    1:50   28.7   100   10.4   234    12.4   999.00    693.4      0.0    -1448       0   999.0        0     0.0
 149    1:55   28.7   100   10.2   238    12.0   999.00    693.3      0.0    -1447       0   999.0        0     0.0
 149    2:00   28.7   100    9.9   235    11.8   999.00    693.3      0.0    -1447       0   999.0        0     0.0
 149    2:05   28.7   100   10.7   232    12.2   999.00    693.2      0.0    -1447       0   999.0        0     0.0
 149    2:10   28.5   100    8.4   223    11.1   999.00    693.2      0.0    -1447       0   999.0        0     0.0
 149    2:15   28.4   100    7.7   222     9.1   999.00    693.2      0.0    -1447       0   999.0        0     0.0
 149    2:20   28.5   100    9.0   232    10.9   999.00    693.2      0.0    -1447       0   999.0        0     0.0
 149    2:25   28.5   100    7.7   230     9.6   999.00    693.2      0.0    -1447       0   999.0        0     0.0
 149    2:30   28.6   100    7.3   226     9.1   999.00    693.2      0.0    -1447       0   999.0        0     0.0
 149    2:35   28.5   100    6.7   226     7.9   999.00    693.2      0.0    -1447       0   999.0        0     0.0
 149    2:40   28.3   100    6.6   226    10.9   999.00    693.2      0.0    -1447       0   999.0        0     0.0
 149    2:45   28.3   100    7.2   226    10.2   999.00    693.1      0.0    -1447       0   999.0        0     0.0
 149    2:50   28.3   100    7.7   222    10.4   999.00    693.1      0.0    -1447       0   999.0        0     0.0
 149    2:55   28.4   100    7.9   225    11.1   999.00    693.1      0.0    -1447       0   999.0        0     0.0
 149    3:00   28.5   100    6.3   224     9.4   999.00    693.1      0.0    -1447       0   999.0        0     0.0
 149    3:05   28.5   100    7.6   232     9.2   999.00    693.2      0.0    -1447       0   999.0        0     0.0
 149    3:10   28.5   100    6.9   234     8.7   999.00    693.2      0.0    -1447       0   999.0        0     0.0
 149    3:15   28.4   100    5.9   238     7.6   999.00    693.2      0.0    -1447       0   999.0        0     0.0
 149    3:20   28.4   100    6.3   233     7.2   999.00    693.2      0.0    -1447       0   999.0        0     0.0
 149    3:25   28.4   100    5.8   229     7.4   999.00    693.2      0.0    -1447       0   999.0        0     0.0
 149    3:30   28.4   100    5.6   231     7.6   999.00    693.3      0.0    -1447       0   999.0        0     0.0
 149    3:35   28.4   100    5.0   246     6.3   999.00    693.3      0.0    -1447       0   999.0        0     0.0
 149    3:40   28.4   100    4.3   260     5.3   999.00    693.2      0.0    -1447       0   999.0        0     0.0
 149    3:45   28.4   100    5.3   256     7.4   999.00    693.3      0.0    -1447       0   999.0        0     0.0
 149    3:50   28.4   100    5.9   256     7.8   999.00    693.3      0.0    -1447       0   999.0        0     0.0
 149    3:55   28.4   100    5.1   245     6.6   999.00    693.3      0.0    -1447       0   999.0        0     0.0
 149    4:00   28.4   100    5.5   238     7.0   999.00    693.3      0.0    -1447       0   999.0        0     0.0
 149    4:05   28.4   100    5.7   238     7.2   999.00    693.4      0.0    -1447       0   999.0        0     0.0
 149    4:10   28.4   100    5.1   242     6.3   999.00    693.4      0.0    -1447       0   999.0        0     0.0
 149    4:15   28.5   100    5.4   229     8.7   999.00    693.4      0.0    -1447       0   999.0        0     0.0
 149    4:20   28.4   100    3.5   221     5.0   999.00    693.4      0.0    -1447       0   999.0        0     0.0
 149    4:25   28.3   100    3.5   223     5.2   999.00    693.4      0.0    -1447       0   999.0        0     0.0
 149    4:30   28.4   100    3.5   238     5.9   999.00    693.4      0.0    -1447       0   999.0        0     0.0
 149    4:35   28.5   100    3.9   244     5.2   999.00    693.5      0.0    -1447       0   999.0        0     0.0
 149    4:40   28.6   100    3.9   278     5.2   999.00    693.5      0.0    -1447       0   999.0        0     0.0
 149    4:45   28.7   100    5.4   239     9.1   999.00    693.5      0.0    -1447       0   999.0        0     0.0
 149    4:50   28.7   100    5.4   236     8.9   999.00    693.5      0.0    -1447       0   999.0        0     0.0
 149    4:55   28.7   100    5.2   240     6.5   999.00    693.6      0.0    -1448       0   999.0        0     0.0
 149    5:00   28.8   100    5.7   229     7.4   999.00    693.6      0.0    -1447       0   999.0        0     0.0
 149    5:05   28.8   100    4.7   253     7.2   999.00    693.6      0.0    -1448       0   999.0        0     0.0
 149    5:10   28.8   100    4.9   252     7.6   999.00    693.7      0.0    -1448       0   999.0        0     0.0
 149    5:15   28.7   100    6.9   241    10.4   999.00    693.7      0.0    -1448       0   999.0        0     0.0
 149    5:20   28.7   100    6.5   259    11.3   999.00    693.8      0.0    -1448       0   999.0        0     0.0
 149    5:25   28.7   100    5.4   264     7.4   999.00    693.8      0.0    -1448       0   999.0        0     0.0
 149    5:30   28.8   100    7.2   259     8.5   999.00    693.8      0.0    -1448       0   999.0        0     0.0
 149    5:35   28.8   100    5.2   246     8.3   999.00    693.9      0.0    -1448       0   999.0        0     0.0
 149    5:40   28.8   100    4.3   260     7.4   999.00    693.9      0.0    -1448       0   999.0        0     0.0
 149    5:45   28.8   100    4.4   268     7.2   999.00    693.9      0.0    -1448       0   999.0        0     0.0
 149    5:50   28.8   100    3.9   269     7.0   999.00    693.9      0.0    -1448       0   999.0        0     0.0
 149    5:55   28.8   100    4.4   272     6.3   999.00    694.0      0.0    -1448       0   999.0        0     0.0
 149    6:00   28.8   100    4.5   284     7.4   999.00    694.0      0.0    -1448       0   999.0        0     0.0
 149    6:05   28.9   100    5.2   274     7.8   999.00    694.0      0.0    -1448       0   999.0        0     0.0
 149    6:10   29.0   100    4.7   274     7.0   999.00    694.0      0.0    -1449       0   999.0        0     0.0
 149    6:15   29.0   100    3.3   276     5.0   999.00    694.1      0.0    -1449       0   999.0        0     0.0
 149    6:20   29.1   100    4.5   270     6.3   999.00    694.1      0.0    -1449       0   999.0        0     0.0
 149    6:25   29.1   100    4.2   260     6.5   999.00    694.1      0.0    -1449       0   999.0        0     0.0
 149    6:30   29.2   100    3.9   263     7.0   999.00    694.1      0.0    -1449       0   999.0        0     0.0
 149    6:35   29.4   100    4.8   274     8.3   999.00    694.2      0.0    -1449       0   999.0        0     0.0
 149    6:40   29.4   100    4.1   281     5.2   999.00    694.2      0.0    -1449       0   999.0        0     0.0
 149    6:45   29.4   100    5.4   272     8.9   999.00    694.2      0.0    -1449       0   999.0        0     0.0
 149    6:50   29.4   100    5.6   265     8.7   999.00    694.3      0.0    -1449       0   999.0        0     0.0
 149    6:55   29.4   100    6.6   269     9.4   999.00    694.3      0.0    -1449       0   999.0        0     0.0
 149    7:00   29.4   100    4.5   263     6.1   999.00    694.3      0.0    -1449       0   999.0        0     0.0
 149    7:05   29.3   100    4.5   262     7.4   999.00    694.4      0.0    -1449       0   999.0        0     0.0
 149    7:10   29.3   100    3.6   274     6.1   999.00    694.4      0.0    -1449       0   999.0        0     0.0
 149    7:15   29.4   100    3.8   282     5.2   999.00    694.5      0.0    -1449       0   999.0        0     0.0
 149    7:20   29.5   100    3.1   288     4.4   999.00    694.5      0.0    -1449       0   999.0        0     0.0
 149    7:25   29.7   100    3.8   297     5.0   999.00    694.6      0.0    -1449       0   999.0        0     0.0
 149    7:30   29.6   100    4.0   290     5.5   999.00    694.6      0.0    -1449       0   999.0        0     0.0
 149    7:35   29.7   100    3.6   303     5.2   999.00    694.6      0.0    -1449       0   999.0        0     0.0
 149    7:40   29.6   100    2.7   303     4.8   999.00    694.7      0.0    -1449       0   999.0        0     0.0
 149    7:45   29.7   100    2.5   302     5.0   999.00    694.7      0.0    -1449       0   999.0        0     0.0
 149    7:50   29.8   100    3.6   300     4.8   999.00    694.7      0.0    -1449       0   999.0        0     0.0
 149    7:55   29.6   100    3.0   299     4.6   999.00    694.8      0.0    -1449       0   999.0        0     0.0
 149    8:00   29.6   100    2.0   299     3.3   999.00    694.7      0.0    -1449       0   999.0        0     0.0
 149    8:05   29.8   100    2.0   299     4.4   999.00    694.8      0.0    -1449       0   999.0        0     0.0
 149    8:10   29.7   100    3.8   293     6.1   999.00    694.9      0.0    -1449       0   999.0        0     0.0
 149    8:15   29.8   100    2.5   293     3.8   999.00    694.9      0.0    -1449       0   999.0        0     0.0
 149    8:20   30.1   100    2.7   293     4.8   999.00    694.9      0.0    -1448       0   999.0        0     0.0
 149    8:25   30.0   100    3.0   293     4.6   999.00    694.8      0.0    -1447       0   999.0        0     0.0
 149    8:30   29.9   100    3.2   290     5.3   999.00    694.8      0.0    -1447       0   999.0        0     0.0
 149    8:35   29.8   100    2.6   266     4.4   999.00    694.9      0.0    -1447       0   999.0        0     0.0
 149    8:40   29.8   100    2.7   248     5.0   999.00    694.9      0.0    -1446       0   999.0        0     0.0
 149    8:45   30.0   100    3.2   245     4.4   999.00    694.9      0.0    -1446       0   999.0        0     0.0
 149    8:50   29.9   100    3.1   243     4.6   999.00    694.9      0.0    -1446       0   999.0        0     0.0
 149    8:55   29.9   100    3.6   240     4.8   999.00    695.0      0.0    -1446       0   999.0        0     0.0
 149    9:00   29.9   100    2.6   214     4.2   999.00    695.0      0.0    -1446       0   999.0        0     0.0
 149    9:05   29.9   100    2.6   206     4.6   999.00    695.0      0.0    -1446       0   999.0        0     0.0
 149    9:10   30.2   100    2.3   209     4.2   999.00    695.1      0.0    -1446       0   999.0        0     0.0
 149    9:15   30.3   100    2.7   209     4.2   999.00    695.1      0.0    -1446       0   999.0        0     0.0
 149    9:20   30.1   100    3.1   194     4.4   999.00    695.1      0.0    -1446       0   999.0        0     0.0
 149    9:25   29.9   100    2.2   205     4.2   999.00    695.2      0.0    -1446       0   999.0        0     0.0
 149    9:30   29.9   100    3.3   214     4.8   999.00    695.2      0.0    -1446       0   999.0        0     0.0
 149    9:35   30.2   100    4.6   227     6.6   999.00    695.2      0.0    -1445       0   999.0        0     0.0
 149    9:40   30.5    99    5.4   233     7.2   999.00    695.2      0.0    -1445       0   999.0        0     0.0
 149    9:45   30.7    98    6.4   236     8.5   999.00    695.2      0.0    -1445       0   999.0        0     0.0
 149    9:50   30.9    98    7.3   243     9.2   999.00    695.2      0.0    -1445       0   999.0        0     0.0
 149    9:55   30.9    99    7.0   239     9.2   999.00    695.2      0.0    -1445       0   999.0        0     0.0
 149   10:00   31.0    98    6.8   253     8.3   999.00    695.2      0.0    -1445       0   999.0        0     0.0
 149   10:05   30.9    99    6.0   245     7.9   999.00    695.3      0.0    -1445       0   999.0        0     0.0
 149   10:10   31.0   100    5.5   243     7.9   999.00    695.2      0.0    -1444       0   999.0        0     0.0
 149   10:15   31.5    99    4.9   251     8.5   999.00    695.3      0.0    -1444       0   999.0        0     0.0
 149   10:20   31.4   100    3.3   266     5.5   999.00    695.3      0.0    -1444       0   999.0        0     0.0
 149   10:25   31.5   100    3.5   277     4.8   999.00    695.3      0.0    -1444       0   999.0        0     0.0
 149   10:30   31.5   100    3.2   265     5.0   999.00    695.4      0.0    -1444       0   999.0        0     0.0
 149   10:35   31.5   100    7.1   240    10.2   999.00    695.4      0.0    -1444       0   999.0        0     0.0
 149   10:40   31.5    98    7.4   243     9.2   999.00    695.4      0.0    -1443       0   999.0        0     0.0
 149   10:45   31.5    98    5.8   240     8.7   999.00    695.4      0.0    -1443       0   999.0        0     0.0
 149   10:50   31.6   100    5.1   258     8.7   999.00    695.4      0.0    -1443       0   999.0        0     0.0
 149   10:55   31.5   100    5.0   252     6.8   999.00    695.5      0.0    -1443       0   999.0        0     0.0
 149   11:00   31.9    99    3.1   251     4.8   999.00    695.5      0.0    -1443       0   999.0        0     0.0
 149   11:05   31.8   100    3.9   237     5.2   999.00    695.5      0.0    -1443       0   999.0        0     0.0
 149   11:10   31.6   100    2.6   238     5.0   999.00    695.5      0.0    -1443       0   999.0        0     0.0
 149   11:15   31.6   100    2.4   260     4.2   999.00    695.6      0.0    -1443       0   999.0        0     0.0
 149   11:20   31.6   100    3.2   274     5.2   999.00    695.5      0.0    -1442       0   999.0        0     0.0
 149   11:25   31.7   100    2.4   270     4.6   999.00    695.5      0.0    -1442       0   999.0        0     0.0
 149   11:30   31.9   100    2.1   250     4.0   999.00    695.5      0.0    -1442       0   999.0        0     0.0
 149   11:35   31.9   100    2.6   263     4.8   999.00    695.5      0.0    -1442       0   999.0        0     0.0
 149   11:40   31.8   100    3.8   300     5.2   999.00    695.6      0.0    -1442       0   999.0        0     0.0
 149   11:45   32.0   100    3.5   272     4.8   999.00    695.6      0.0    -1442       0   999.0        0     0.0
 149   11:50   32.2   100    4.1   268     6.5   999.00    695.6      0.0    -1442       0   999.0        0     0.0
 149   11:55   32.1   100    4.1   268     5.7   999.00    695.5      0.0    -1442       0   999.0        0     0.0
 149   12:00   32.4   100    3.5   268     5.3   999.00    695.5      0.0    -1442       0   999.0        0     0.0
 149   12:05   33.0    99    3.5   282     5.5   999.00    695.6      0.0    -1442       0   999.0        0     0.0
 149   12:10   33.3    98    3.6   281     5.3   999.00    695.6      0.0    -1442       0   999.0        0     0.0
 149   12:15   33.6    96    4.9   286     7.9   999.00    695.5      0.0    -1442       0   999.0        0     0.0
 149   12:20   33.2    97    5.0   276     8.9   999.00    695.5      0.0    -1441       0   999.0        0     0.0
 149   12:25   33.7    96    5.7   304     9.6   999.00    695.5      0.0    -1441       0   999.0        0     0.0
 149   12:30   33.5    97    5.9   293     8.3   999.00    695.5      0.0    -1441       0   999.0        0     0.0
 149   12:35   33.3    98    7.2   290    11.5   999.00    695.5      0.0    -1441       0   999.0        0     0.0
 149   12:40   33.8    99    6.0   280    10.0   999.00    695.5      0.0    -1441       0   999.0        0     0.0
 149   12:45   34.0    99    4.9   288     9.8   999.00    695.5      0.0    -1441       0   999.0        0     0.0
 149   12:50   33.9   100    4.6   296     7.0   999.00    695.5      0.0    -1441       0   999.0        0     0.0
 149   12:55   34.0   100    3.9   295     5.9   999.00    695.6      0.0    -1441       0   999.0        0     0.0
 149   13:00   34.3    99    5.6   290     7.9   999.00    695.6      0.0    -1441       0   999.0        0     0.0
 149   13:05   34.5    99    5.5   306    10.9   999.00    695.6      0.0    -1441       0   999.0        0     0.0
 149   13:10   34.5    98    4.3   300     6.6   999.00    695.6      0.0    -1441       0   999.0        0     0.0
 149   13:15   34.4    96    3.7   272     5.7   999.00    695.6      0.0    -1440       0   999.0        0     0.0
 149   13:20   34.1    95    3.2   280     4.8   999.00    695.6      0.0    -1440       0   999.0        0     0.0
 149   13:25   34.3    93    4.3   279     5.5   999.00    695.6      0.0    -1440       0   999.0        0     0.0
 149   13:30   34.4    93    4.6   289     7.8   999.00    695.6      0.0    -1440       0   999.0        0     0.0

Return to DRI Storm Peak Lab. graphs page.


Western Regional Climate Center,wrcc@dri.edu